KLJF

Litchfield Municipal Airport

Litchfield, Minnesota, USA
METAR KLJF 201935Z AUTO 34014G20KT 10SM CLR 06/M08 A3029 RMK AO2
Observed Flight Rules
Oct-20 @ 19:35 UTC (26 minutes ago) Visual Flight Rules
Wind Visibility Clouds
340° at 14 knots
 Gusting to 20 knots
10 miles
  • Clear skies
Temperatures Readings
Current 6°C / 43°F
Dewpoint -8°C / 18°F
Humidity 36%
Altimeter 30.29" Hg
Pressure 1026 hPa
Elevation 348
METAR KLJF 201935Z AUTO 34014G20KT 10SM CLR 06/M08 A3029 RMK AO2
Observed Flight Rules
Oct-20 @ 19:35 UTC
(26 minutes ago)
VFR
Wind Visibility
340° at 14 knots
 Gusting to 20 knots
10 miles
Clouds
  • Clear skies
Temperature Dewpoint
6°C / 43°F -8°C / 18°F
Humidity Altimeter Pressure
36% 30.29" Hg 1026 hPa